createdAt,value
2023-07-02T06:03:30.297Z,104.00
2023-07-02T06:18:05.039Z,105.33
2023-07-02T07:34:11.194Z,67.67
2023-07-02T07:34:45.527Z,65.67
2023-07-02T07:42:05.026Z,43.67
2023-07-02T08:25:11.187Z,88.33
2023-07-02T08:32:56.416Z,27.67
2023-07-02T08:33:30.248Z,28.00
2023-07-02T08:34:45.273Z,24.33
2023-07-02T08:37:44.100Z,24.67
2023-07-02T08:39:03.364Z,26.33
2023-07-02T08:39:42.164Z,26.67
2023-07-02T08:40:21.090Z,26.00
2023-07-02T08:40:57.055Z,25.00
2023-07-02T08:41:31.006Z,24.33
2023-07-02T08:47:25.045Z,31.00
2023-07-02T08:48:06.769Z,33.00
2023-07-02T08:48:42.988Z,31.67
2023-07-02T08:49:15.539Z,30.00
2023-07-02T08:49:54.675Z,26.33
2023-07-02T08:58:26.737Z,29.00
2023-07-02T09:28:45.974Z,19.00
2023-07-02T09:29:55.281Z,23.33
2023-07-02T09:30:30.547Z,38.33
2023-07-02T09:31:04.954Z,40.33
2023-07-02T09:32:07.304Z,39.00
2023-07-02T09:34:38.803Z,41.00
2023-07-02T09:36:28.242Z,55.33
2023-07-02T09:40:50.465Z,56.00
2023-07-02T09:42:11.844Z,60.00
2023-07-02T09:49:20.714Z,50.00
2023-07-02T09:55:43.166Z,38.00
2023-07-02T10:08:25.368Z,20.00
2023-07-02T10:09:02.203Z,20.00
2023-07-02T10:10:48.059Z,24.67
2023-07-02T10:11:22.373Z,30.00
2023-07-02T10:11:57.310Z,31.67
2023-07-02T10:12:50.589Z,33.00
2023-07-02T10:15:05.697Z,64.00
2023-07-02T10:15:43.887Z,95.67
2023-07-02T10:25:52.120Z,82.00
2023-07-02T10:26:28.446Z,81.33
2023-07-02T10:27:04.232Z,83.33
2023-07-02T10:27:45.404Z,85.67
2023-07-02T10:28:39.337Z,84.00
2023-07-02T10:31:24.453Z,101.33
2023-07-02T10:31:58.558Z,103.67
2023-07-02T10:45:36.107Z,122.67
2023-07-02T10:46:09.313Z,120.33
2023-07-02T10:46:45.990Z,117.67
2023-07-02T10:47:29.590Z,107.33
2023-07-02T10:48:34.265Z,83.33
2023-07-02T10:49:10.044Z,69.67
2023-07-02T10:59:31.486Z,80.00
2023-07-02T11:00:14.581Z,82.00
2023-07-02T11:04:58.333Z,111.33
2023-07-02T11:06:20.508Z,108.00
2023-07-02T11:07:35.210Z,123.00
2023-07-02T11:08:12.091Z,117.33
2023-07-02T11:08:47.622Z,113.00
2023-07-02T11:09:25.720Z,105.00
2023-07-02T11:10:09.768Z,93.67
2023-07-02T11:10:43.350Z,92.00
2023-07-02T11:11:16.651Z,92.00
2023-07-02T11:12:11.263Z,93.00
2023-07-02T11:12:45.925Z,95.33
2023-07-02T11:17:46.299Z,120.33
2023-07-02T11:19:16.108Z,118.00
2023-07-02T11:19:52.317Z,116.00
2023-07-02T11:20:44.436Z,117.00
2023-07-02T11:40:47.889Z,66.67
2023-07-02T11:41:29.779Z,69.67
2023-07-02T11:42:03.333Z,74.67
2023-07-02T11:44:38.348Z,48.33
2023-07-02T11:45:11.102Z,44.00
2023-07-02T11:45:45.452Z,42.33
2023-07-02T11:46:23.098Z,45.33
2023-07-02T11:46:58.749Z,46.33
2023-07-02T11:54:07.070Z,45.33
2023-07-02T11:54:39.689Z,46.00
2023-07-02T11:55:12.510Z,46.00
2023-07-02T11:55:45.007Z,42.67
2023-07-02T11:57:07.667Z,36.67
2023-07-02T11:58:45.839Z,37.67
2023-07-02T12:08:50.620Z,41.00
2023-07-02T12:09:23.131Z,41.00
2023-07-02T12:09:58.383Z,41.00
2023-07-02T12:10:31.189Z,42.00
2023-07-02T12:11:10.187Z,42.00
2023-07-02T12:14:16.729Z,39.00
2023-07-02T12:21:17.292Z,41.67
2023-07-02T12:24:35.963Z,41.33
2023-07-02T12:25:14.744Z,52.00
2023-07-02T12:25:52.807Z,51.67
2023-07-02T12:26:26.450Z,50.00
2023-07-02T12:26:59.057Z,47.00
2023-07-02T12:27:52.770Z,44.00
2023-07-02T12:28:25.320Z,42.00
2023-07-02T12:29:07.986Z,64.33
2023-07-02T12:29:40.625Z,74.33
2023-07-02T12:30:13.274Z,64.33
2023-07-02T12:30:48.217Z,60.33
2023-07-02T12:31:24.755Z,57.00
2023-07-02T12:32:44.094Z,47.00
2023-07-02T12:33:24.454Z,47.00
2023-07-02T12:33:57.855Z,47.33
2023-07-02T12:34:35.211Z,45.67
2023-07-02T12:35:08.202Z,37.33
2023-07-02T12:35:42.902Z,30.33
2023-07-02T12:36:15.532Z,26.67
2023-07-02T12:36:56.297Z,25.00
2023-07-02T12:37:33.755Z,24.33
2023-07-02T12:38:18.095Z,23.33
2023-07-02T12:39:34.002Z,21.33
2023-07-02T12:40:27.277Z,22.00
2023-07-02T12:41:03.369Z,23.67
2023-07-02T12:41:38.224Z,29.00
2023-07-02T12:42:11.747Z,38.00
2023-07-02T12:42:50.800Z,38.67
2023-07-02T12:43:24.578Z,38.00
2023-07-02T12:44:01.748Z,37.00
2023-07-02T12:44:34.248Z,36.00
2023-07-02T12:45:11.744Z,36.00
2023-07-02T12:45:44.269Z,35.00
2023-07-02T12:46:58.030Z,34.67
2023-07-02T12:47:30.630Z,32.33
2023-07-02T12:49:05.445Z,34.67
2023-07-02T12:51:23.215Z,33.33
2023-07-02T12:51:56.488Z,31.33
2023-07-02T12:52:32.576Z,31.00
2023-07-02T12:53:09.374Z,31.67
2023-07-02T12:53:43.483Z,35.00
2023-07-02T12:54:17.482Z,36.00
2023-07-02T12:54:53.322Z,36.00
2023-07-02T12:55:34.976Z,36.00
2023-07-02T12:59:19.913Z,51.67
2023-07-02T12:59:59.003Z,50.67
2023-07-02T13:00:34.383Z,54.33
2023-07-02T13:01:09.715Z,57.00
2023-07-02T13:01:42.375Z,55.67
2023-07-02T13:02:15.448Z,58.00
2023-07-02T13:03:34.725Z,61.33
2023-07-02T13:04:10.607Z,59.00
2023-07-02T13:04:46.261Z,57.33
2023-07-02T13:05:56.217Z,56.33
2023-07-02T13:06:30.747Z,47.00
2023-07-02T13:07:04.204Z,41.33
2023-07-02T13:07:36.797Z,38.00
2023-07-02T13:08:12.186Z,37.00
2023-07-02T13:08:46.238Z,36.00
2023-07-02T13:09:41.980Z,34.00
2023-07-02T13:10:16.825Z,32.00
2023-07-02T13:10:56.955Z,33.00
2023-07-02T13:11:29.549Z,34.00
2023-07-02T13:12:02.492Z,34.00
2023-07-02T13:12:35.085Z,34.00
2023-07-02T13:13:24.030Z,33.67
2023-07-02T13:14:06.331Z,34.00
2023-07-02T13:15:07.286Z,34.00
2023-07-02T13:17:08.121Z,34.33
2023-07-02T13:20:13.269Z,37.00
2023-07-02T13:22:21.437Z,34.67
2023-07-02T13:23:00.507Z,34.00
2023-07-02T13:23:34.505Z,34.00
2023-07-02T13:24:34.503Z,34.33
2023-07-02T13:25:10.286Z,40.00
2023-07-02T13:25:52.545Z,44.33
2023-07-02T13:26:47.308Z,51.00
2023-07-02T13:27:29.465Z,52.67
2023-07-02T13:30:11.415Z,57.67
2023-07-02T13:30:52.251Z,56.00
2023-07-02T13:31:32.072Z,55.00
2023-07-02T13:32:12.301Z,54.00
2023-07-02T13:32:46.715Z,53.00
2023-07-02T13:33:25.342Z,51.67
2023-07-02T13:33:57.912Z,50.33
2023-07-02T13:34:32.081Z,50.00
2023-07-02T13:35:06.579Z,49.33
2023-07-02T13:35:40.729Z,46.67
2023-07-02T13:36:18.275Z,40.00
2023-07-02T13:36:53.287Z,34.00
2023-07-02T13:38:14.204Z,24.67
2023-07-02T13:38:49.570Z,24.67
2023-07-02T13:39:22.192Z,25.33
2023-07-02T13:39:58.183Z,24.33
2023-07-02T13:46:50.436Z,38.67
2023-07-02T13:57:17.824Z,34.00
2023-07-02T13:57:53.443Z,34.00
2023-07-02T13:59:23.841Z,34.00
2023-07-02T14:00:01.178Z,35.00
2023-07-02T14:00:41.876Z,35.00
2023-07-02T14:12:13.591Z,67.00
2023-07-02T14:17:04.185Z,54.00
2023-07-02T14:17:39.115Z,76.33
2023-07-02T14:18:11.709Z,81.00
2023-07-02T14:18:50.032Z,76.67
2023-07-02T14:19:31.136Z,78.67
2023-07-02T14:32:23.281Z,54.00
2023-07-02T14:32:55.894Z,53.00
2023-07-02T14:48:02.669Z,35.33
2023-07-02T14:48:41.896Z,37.00
2023-07-02T14:49:17.395Z,38.33
2023-07-02T14:49:58.429Z,43.00
2023-07-02T14:50:56.236Z,45.00
2023-07-02T14:52:29.054Z,39.67
2023-07-02T14:53:01.602Z,34.33
2023-07-02T14:53:37.421Z,33.33
2023-07-02T14:54:12.074Z,44.33
2023-07-02T14:54:48.009Z,64.33
2023-07-02T15:10:34.179Z,63.00
2023-07-02T15:11:22.431Z,58.00
2023-07-02T15:11:54.994Z,57.00
2023-07-02T15:15:28.951Z,83.67
2023-07-02T15:16:15.258Z,78.00
2023-07-02T15:16:52.410Z,65.00
2023-07-02T15:17:32.136Z,63.33
2023-07-02T15:25:54.845Z,155.00
2023-07-02T15:28:21.839Z,118.67
2023-07-02T15:28:55.554Z,110.33
2023-07-02T15:29:28.174Z,134.67
2023-07-02T15:30:03.653Z,118.00
2023-07-02T15:30:42.172Z,100.00
2023-07-02T15:32:07.411Z,65.33
2023-07-02T15:33:49.540Z,70.67
2023-07-02T15:35:44.834Z,67.00
2023-07-02T15:41:28.150Z,124.00
2023-07-02T15:42:02.166Z,120.33
2023-07-02T15:43:49.897Z,94.00
2023-07-02T15:44:27.628Z,96.33
2023-07-02T15:45:28.785Z,122.67
2023-07-02T15:46:03.629Z,96.00
2023-07-02T15:46:37.471Z,63.33
2023-07-02T15:47:10.148Z,55.33
2023-07-02T15:47:44.793Z,54.00
2023-07-02T15:48:17.534Z,51.33
2023-07-02T15:48:55.728Z,47.67
2023-07-02T15:49:28.272Z,50.67
2023-07-02T15:50:01.964Z,56.33
2023-07-02T15:50:34.510Z,52.67
2023-07-02T15:52:38.545Z,42.33
2023-07-02T15:53:14.668Z,46.00
2023-07-02T15:53:52.366Z,61.67
2023-07-02T15:55:17.049Z,70.67
2023-07-02T15:56:10.391Z,62.00
2023-07-02T15:56:50.338Z,56.00
2023-07-02T15:57:27.307Z,50.00
2023-07-02T15:58:00.379Z,44.67
2023-07-02T15:58:55.040Z,42.33
2023-07-02T15:59:40.510Z,44.33
2023-07-02T16:09:09.081Z,149.00
2023-07-02T16:10:03.808Z,95.33
2023-07-02T16:10:52.100Z,67.33
2023-07-02T16:11:25.637Z,50.00
2023-07-02T16:12:04.182Z,45.33
2023-07-02T16:15:27.641Z,49.00
2023-07-02T16:16:02.907Z,48.33
2023-07-02T16:16:36.948Z,42.33
2023-07-02T16:18:10.709Z,41.67
2023-07-02T16:18:50.274Z,48.67
2023-07-02T16:20:31.665Z,103.33
2023-07-02T16:21:05.980Z,98.33
2023-07-02T16:21:43.670Z,90.33
2023-07-02T16:23:10.737Z,56.33
2023-07-02T16:23:46.020Z,46.00
2023-07-02T16:24:48.596Z,39.67
2023-07-02T16:25:22.257Z,28.33
2023-07-02T16:26:04.056Z,25.00
2023-07-02T16:26:41.469Z,26.67
2023-07-02T16:27:15.267Z,23.33
2023-07-02T16:28:41.309Z,23.67
2023-07-02T16:29:34.378Z,26.00
2023-07-02T16:31:08.079Z,30.00
2023-07-02T16:31:45.648Z,37.67
2023-07-02T16:51:54.984Z,29.00
2023-07-02T16:52:27.934Z,24.00
2023-07-02T16:53:03.233Z,21.00
2023-07-02T16:53:39.760Z,19.00
2023-07-02T16:54:34.303Z,18.33
2023-07-02T16:55:12.733Z,15.33
2023-07-02T16:55:45.501Z,14.00
2023-07-02T16:56:18.098Z,13.00
2023-07-02T16:57:03.464Z,13.00
2023-07-02T16:57:39.946Z,12.33
2023-07-02T16:58:19.120Z,15.00
2023-07-02T16:59:11.600Z,17.33
2023-07-02T16:59:44.185Z,22.67
2023-07-02T17:00:17.262Z,25.00
2023-07-02T17:01:00.165Z,25.33
2023-07-02T17:01:32.737Z,25.00
2023-07-02T17:02:09.265Z,25.00
2023-07-02T17:02:42.355Z,24.67
2023-07-02T17:03:16.278Z,23.33
2023-07-02T17:03:51.801Z,22.67
2023-07-02T17:04:26.781Z,21.67
2023-07-02T17:05:04.131Z,21.00
2023-07-02T17:05:38.379Z,20.33
2023-07-02T17:06:11.126Z,20.00
2023-07-02T17:06:52.915Z,19.33
2023-07-02T17:07:25.830Z,19.00
2023-07-02T17:09:51.923Z,18.33
2023-07-02T17:10:24.515Z,18.00
2023-07-02T17:10:57.060Z,18.00
2023-07-02T17:11:29.741Z,19.00
2023-07-02T17:12:09.819Z,20.33
2023-07-02T17:12:42.398Z,24.00
2023-07-02T17:13:19.233Z,25.67
2023-07-02T17:13:52.141Z,27.67
2023-07-02T17:14:31.582Z,29.00
2023-07-02T17:15:07.525Z,29.00
2023-07-02T17:15:40.112Z,29.00
2023-07-02T17:16:13.461Z,30.67
2023-07-02T17:16:46.066Z,32.33
2023-07-02T17:17:21.268Z,33.00
2023-07-02T17:17:54.044Z,33.00
2023-07-02T17:18:26.635Z,33.00
2023-07-02T17:18:59.270Z,32.33
2023-07-02T17:19:52.517Z,31.33
2023-07-02T17:20:29.796Z,35.00
2023-07-02T17:21:05.672Z,40.00
2023-07-02T17:23:45.986Z,37.00
2023-07-02T17:24:29.863Z,36.33
2023-07-02T17:25:04.142Z,36.00
2023-07-02T17:25:39.782Z,35.00
2023-07-02T17:26:12.298Z,34.33
2023-07-02T17:26:44.955Z,33.33
2023-07-02T17:27:21.010Z,31.33
2023-07-02T17:27:56.087Z,29.00
2023-07-02T17:28:37.804Z,26.67
2023-07-02T17:29:11.642Z,25.00
2023-07-02T17:29:51.242Z,23.67
2023-07-02T17:30:23.802Z,23.00
2023-07-02T17:30:59.350Z,23.00
2023-07-02T17:31:32.327Z,23.33
2023-07-02T17:32:10.181Z,24.00
2023-07-02T17:32:42.822Z,24.67
2023-07-02T17:33:18.117Z,25.00
2023-07-02T17:33:50.740Z,24.33
2023-07-02T17:34:29.089Z,24.00
2023-07-02T17:35:04.373Z,23.00
2023-07-02T17:35:40.669Z,23.00
2023-07-02T17:36:19.654Z,24.00
2023-07-02T17:36:56.546Z,24.67
2023-07-02T17:37:29.294Z,25.00
2023-07-02T17:38:01.880Z,25.33
2023-07-02T17:38:37.082Z,27.33
2023-07-02T17:39:10.130Z,32.33
2023-07-02T17:39:42.825Z,35.00
2023-07-02T17:40:15.528Z,35.00
2023-07-02T17:40:48.120Z,34.67
2023-07-02T17:41:22.907Z,34.33
2023-07-02T17:41:57.104Z,35.67
2023-07-02T17:42:29.666Z,36.00
2023-07-02T17:43:02.279Z,36.00
2023-07-02T17:43:34.838Z,35.67
2023-07-02T17:44:08.824Z,36.00
2023-07-02T17:44:46.450Z,39.00
2023-07-02T17:45:19.254Z,44.00
2023-07-02T17:45:58.280Z,44.00
2023-07-02T17:46:42.225Z,43.00
2023-07-02T17:47:19.217Z,43.00
2023-07-02T17:47:52.296Z,42.00
2023-07-02T17:48:27.112Z,42.00
2023-07-02T17:49:00.936Z,42.67
2023-07-02T17:49:36.413Z,46.67
2023-07-02T17:50:13.282Z,46.00
2023-07-02T17:51:02.405Z,46.00
2023-07-02T17:51:36.128Z,46.67
2023-07-02T17:52:11.726Z,46.00
2023-07-02T17:52:44.271Z,45.67
2023-07-02T17:53:16.843Z,45.67
2023-07-02T17:53:49.428Z,53.33
2023-07-02T17:54:23.056Z,55.33
2023-07-02T17:54:55.840Z,53.67
2023-07-02T17:55:29.883Z,52.67
2023-07-02T17:56:03.185Z,51.67
2023-07-02T17:56:36.279Z,50.33
2023-07-02T17:57:45.665Z,48.00
2023-07-02T17:58:18.224Z,45.00
2023-07-02T17:58:54.452Z,45.00
2023-07-02T17:59:28.493Z,45.00
2023-07-02T18:00:01.421Z,44.67
2023-07-02T18:00:34.322Z,43.67
2023-07-02T18:01:06.922Z,43.00
2023-07-02T18:01:44.126Z,43.00
2023-07-02T18:02:18.260Z,43.00
2023-07-02T18:02:50.897Z,42.67
2023-07-02T18:03:23.658Z,42.00
2023-07-02T18:03:59.606Z,42.67
2023-07-02T18:05:06.894Z,49.33
2023-07-02T18:05:40.705Z,49.33
2023-07-02T18:06:13.463Z,49.00
2023-07-02T18:06:47.443Z,49.00
2023-07-02T18:07:21.428Z,49.00
2023-07-02T18:07:54.119Z,49.00
2023-07-02T18:08:26.652Z,50.33
2023-07-02T18:08:59.837Z,52.00
2023-07-02T18:09:32.728Z,53.00
2023-07-02T18:10:05.547Z,75.00
2023-07-02T18:10:38.101Z,84.00
2023-07-02T18:11:11.738Z,78.00
2023-07-02T18:11:44.473Z,70.67
2023-07-02T18:12:19.660Z,67.33
2023-07-02T18:12:52.384Z,65.67
2023-07-02T18:13:25.510Z,64.67
2023-07-02T18:13:58.731Z,60.67
2023-07-02T18:14:32.772Z,57.33
2023-07-02T18:15:05.962Z,56.00
2023-07-02T18:15:38.494Z,55.00
2023-07-02T18:16:11.261Z,55.00
2023-07-02T18:16:43.838Z,53.67
2023-07-02T18:17:17.929Z,51.00
2023-07-02T18:17:51.425Z,44.33
2023-07-02T18:18:24.115Z,39.00
2023-07-02T18:18:56.735Z,38.00
2023-07-02T18:19:30.445Z,38.00
2023-07-02T18:20:03.461Z,38.00
2023-07-02T18:20:36.736Z,38.00
2023-07-02T18:21:12.940Z,38.67
2023-07-02T18:21:45.562Z,39.67
2023-07-02T18:22:18.623Z,41.33
2023-07-02T18:22:51.211Z,43.00
2023-07-02T18:23:24.934Z,43.00
2023-07-02T18:23:59.332Z,41.67
2023-07-02T18:24:33.743Z,37.67
2023-07-02T18:25:07.689Z,33.33
2023-07-02T18:25:40.265Z,31.33
2023-07-02T18:26:12.812Z,32.33
2023-07-02T18:26:45.370Z,43.67
2023-07-02T18:27:18.056Z,98.33
2023-07-02T18:28:11.299Z,133.00
2023-07-02T18:28:43.922Z,141.67
2023-07-02T18:29:18.724Z,128.67
2023-07-02T18:29:51.561Z,108.33
2023-07-02T18:30:24.071Z,101.00
2023-07-02T18:30:57.279Z,97.67
2023-07-02T18:31:29.940Z,91.00
2023-07-02T18:32:06.314Z,87.33
2023-07-02T18:32:39.115Z,85.67
2023-07-02T18:33:11.675Z,85.00
2023-07-02T18:33:44.204Z,84.00
2023-07-02T18:34:17.663Z,88.33
2023-07-02T18:34:50.233Z,106.67
2023-07-02T18:35:22.781Z,108.00
2023-07-02T18:35:55.330Z,96.67
2023-07-02T18:36:27.813Z,93.67
2023-07-02T18:37:02.357Z,94.67
2023-07-02T18:37:37.301Z,93.33
2023-07-02T18:38:10.605Z,91.67
2023-07-02T18:38:43.296Z,90.33
2023-07-02T18:39:19.535Z,89.00
2023-07-02T18:39:52.019Z,93.33
2023-07-02T18:40:24.535Z,93.67
2023-07-02T18:41:06.742Z,94.00
2023-07-02T18:41:39.514Z,91.67
2023-07-02T18:42:13.524Z,74.00
2023-07-02T18:42:47.826Z,53.00
2023-07-02T18:43:20.505Z,45.00
2023-07-02T18:43:53.047Z,42.00
2023-07-02T18:44:29.016Z,45.00
2023-07-02T18:45:01.581Z,45.00
2023-07-02T18:45:34.351Z,42.00
2023-07-02T18:46:07.602Z,42.67
2023-07-02T18:46:41.820Z,42.33
2023-07-02T18:47:14.460Z,45.00
2023-07-02T18:47:47.025Z,51.00
2023-07-02T18:48:21.472Z,52.00
2023-07-02T18:48:53.994Z,53.00
2023-07-02T18:49:26.533Z,53.67
2023-07-02T18:49:59.101Z,54.33
2023-07-02T18:50:32.234Z,55.33
2023-07-02T18:51:06.480Z,58.33
2023-07-02T18:51:39.291Z,67.67
2023-07-02T18:52:14.840Z,70.33
2023-07-02T18:52:47.784Z,71.67
2023-07-02T18:53:22.170Z,71.67
2023-07-02T18:53:55.055Z,71.00
2023-07-02T18:54:27.609Z,71.33
2023-07-02T18:55:00.196Z,72.00
2023-07-02T18:55:32.759Z,71.00
2023-07-02T18:56:07.604Z,71.00
2023-07-02T18:56:43.227Z,75.33
2023-07-02T18:57:17.303Z,124.33
2023-07-02T18:57:49.893Z,149.67
2023-07-02T18:58:22.629Z,128.67
2023-07-02T18:58:55.130Z,107.00
2023-07-02T18:59:27.673Z,97.33
2023-07-02T19:00:00.579Z,95.67
2023-07-02T19:00:33.144Z,94.00
2023-07-02T19:01:11.247Z,90.00
2023-07-02T19:01:43.892Z,79.00
2023-07-02T19:02:17.012Z,68.00
2023-07-02T19:02:50.350Z,60.00
2023-07-02T19:03:23.403Z,59.67
2023-07-02T19:03:58.985Z,60.33
2023-07-02T19:04:31.984Z,60.00
2023-07-02T19:05:06.509Z,55.67
2023-07-02T19:05:39.046Z,57.00
2023-07-02T19:06:11.617Z,60.00
2023-07-02T19:06:44.568Z,61.67
2023-07-02T19:07:20.318Z,65.00
2023-07-02T19:07:52.916Z,67.67
2023-07-02T19:08:25.522Z,69.00
2023-07-02T19:08:58.084Z,69.00
2023-07-02T19:09:30.982Z,69.00
2023-07-02T19:10:04.826Z,69.67
2023-07-02T19:10:38.610Z,70.00
2023-07-02T19:11:11.493Z,70.00
2023-07-02T19:11:44.137Z,71.67
2023-07-02T19:12:16.981Z,71.67
2023-07-02T19:12:49.520Z,70.00
2023-07-02T19:13:22.113Z,66.00
2023-07-02T19:13:56.584Z,62.00
2023-07-02T19:14:30.847Z,57.00
2023-07-02T19:15:04.676Z,54.00
2023-07-02T19:15:37.304Z,53.00
2023-07-02T19:16:09.954Z,54.00
2023-07-02T19:16:42.654Z,59.33
2023-07-02T19:17:16.748Z,99.33
2023-07-02T19:17:49.527Z,167.67
2023-07-02T19:18:23.441Z,210.67
2023-07-02T19:18:55.966Z,263.67
2023-07-02T19:19:28.604Z,331.33
2023-07-02T19:20:03.186Z,346.33
2023-07-02T19:20:36.343Z,299.00
2023-07-02T19:21:14.767Z,279.67
2023-07-02T19:21:47.354Z,280.33
2023-07-02T19:22:23.624Z,320.67
2023-07-02T19:22:56.564Z,330.67
2023-07-02T19:23:32.388Z,263.67
2023-07-02T19:24:05.432Z,209.33
2023-07-02T19:24:38.628Z,197.67
2023-07-02T19:25:11.876Z,171.00
2023-07-02T19:25:46.255Z,145.67
2023-07-02T19:26:18.858Z,140.67
2023-07-02T19:26:52.634Z,202.00
2023-07-02T19:27:25.163Z,253.67
2023-07-02T19:27:57.753Z,282.00
2023-07-02T19:28:30.315Z,253.00
2023-07-02T19:29:03.565Z,215.33
2023-07-02T19:29:37.175Z,177.33
2023-07-02T19:30:10.055Z,141.67
2023-07-02T19:30:42.636Z,132.00
2023-07-02T19:31:15.775Z,132.33
2023-07-02T19:31:48.683Z,121.00
2023-07-02T19:32:21.345Z,111.67
2023-07-02T19:32:54.352Z,98.33
2023-07-02T19:33:27.083Z,109.67
2023-07-02T19:33:59.664Z,162.33
2023-07-02T19:34:32.395Z,246.33
2023-07-02T19:35:09.828Z,276.00
2023-07-02T19:35:42.369Z,240.00
2023-07-02T19:36:14.901Z,229.00
2023-07-02T19:36:48.257Z,237.33
2023-07-02T19:37:22.676Z,237.33
2023-07-02T19:37:55.231Z,239.33
2023-07-02T19:38:30.667Z,252.67
2023-07-02T19:39:03.322Z,245.00
2023-07-02T19:39:35.880Z,223.67
2023-07-02T19:40:08.885Z,226.00
2023-07-02T19:40:42.181Z,238.67
2023-07-02T19:41:15.033Z,265.00
2023-07-02T19:41:48.008Z,249.67
2023-07-02T19:42:20.568Z,235.00
2023-07-02T19:42:53.200Z,231.67
2023-07-02T19:43:26.905Z,233.67
2023-07-02T19:43:59.518Z,252.00
2023-07-02T19:44:32.079Z,254.67
2023-07-02T19:45:06.403Z,243.00
2023-07-02T19:45:40.221Z,253.33
2023-07-02T19:46:12.822Z,323.67
2023-07-02T19:46:45.929Z,319.67
2023-07-02T19:47:18.536Z,281.00
2023-07-02T19:47:51.171Z,258.67
2023-07-02T19:48:23.839Z,254.33
2023-07-02T19:48:57.196Z,253.33
2023-07-02T19:49:31.243Z,250.33
2023-07-02T19:50:03.936Z,250.67
2023-07-02T19:50:36.462Z,243.33
2023-07-02T19:51:09.071Z,209.67
2023-07-02T19:51:47.897Z,225.33
2023-07-02T19:52:22.083Z,258.67
2023-07-02T19:52:54.657Z,257.00
2023-07-02T19:53:27.343Z,241.33
2023-07-02T19:54:01.303Z,227.00
2023-07-02T19:54:33.884Z,230.00
2023-07-02T19:55:12.018Z,225.00
2023-07-02T19:55:44.984Z,210.67
2023-07-02T19:56:17.962Z,211.67
2023-07-02T19:56:51.675Z,206.00
2023-07-02T19:57:24.262Z,207.67
2023-07-02T19:57:56.889Z,218.67
2023-07-02T19:58:29.500Z,220.67
2023-07-02T19:59:02.075Z,184.33
2023-07-02T19:59:34.628Z,139.00
2023-07-02T20:00:09.735Z,114.33
2023-07-02T20:00:43.395Z,100.00
2023-07-02T20:01:17.300Z,98.33
2023-07-02T20:01:49.847Z,116.00
2023-07-02T20:02:22.953Z,168.67
2023-07-02T20:02:55.953Z,237.00
2023-07-02T20:03:28.860Z,272.00
2023-07-02T20:04:01.660Z,249.67
2023-07-02T20:04:34.518Z,230.00
2023-07-02T20:05:08.051Z,223.00
2023-07-02T20:05:41.779Z,252.00
2023-07-02T20:06:15.242Z,271.00
2023-07-02T20:06:48.557Z,267.33
2023-07-02T20:07:21.137Z,267.00
2023-07-02T20:07:53.720Z,264.67
2023-07-02T20:08:26.273Z,256.00
2023-07-02T20:08:59.179Z,248.33
2023-07-02T20:09:32.442Z,241.33
2023-07-02T20:10:08.465Z,246.33
2023-07-02T20:10:41.578Z,273.67
2023-07-02T20:11:20.285Z,299.00
2023-07-02T20:11:59.955Z,323.67
2023-07-02T20:12:32.546Z,296.00
2023-07-02T20:13:05.047Z,259.67
2023-07-02T20:13:37.821Z,207.33
2023-07-02T20:14:10.362Z,168.33
2023-07-02T20:14:46.314Z,161.67
2023-07-02T20:15:18.914Z,162.67
2023-07-02T20:15:54.304Z,165.33
2023-07-02T20:16:31.713Z,147.33
2023-07-02T20:17:05.574Z,131.33
2023-07-02T20:17:38.568Z,122.00
2023-07-02T20:18:11.589Z,115.00
2023-07-02T20:18:44.128Z,105.00
2023-07-02T20:19:21.258Z,98.00
2023-07-02T20:20:04.223Z,94.67
2023-07-02T20:20:37.027Z,85.67
2023-07-02T20:21:10.108Z,80.67
2023-07-02T20:21:44.849Z,77.00
2023-07-02T20:22:19.221Z,70.33
2023-07-02T20:22:52.463Z,69.67
2023-07-02T20:23:27.802Z,85.33
2023-07-02T20:24:02.787Z,169.33
2023-07-02T20:24:36.928Z,236.00
2023-07-02T20:25:43.891Z,190.00
2023-07-02T20:26:02.185Z,153.33
2023-07-02T20:26:35.430Z,132.67
2023-07-02T20:27:08.220Z,119.33
2023-07-02T20:27:40.864Z,117.33
2023-07-02T20:28:15.981Z,114.67
2023-07-02T20:28:48.595Z,129.67
2023-07-02T20:29:21.973Z,168.33
2023-07-02T20:29:55.675Z,168.33
2023-07-02T20:30:29.590Z,163.00
2023-07-02T20:31:04.508Z,155.67
2023-07-02T20:31:37.498Z,140.67
2023-07-02T20:32:10.134Z,135.00
2023-07-02T20:32:42.700Z,146.00
2023-07-02T20:33:15.316Z,181.00
2023-07-02T20:33:47.966Z,168.00
2023-07-02T20:34:24.780Z,161.67
2023-07-02T20:34:57.446Z,186.00
2023-07-02T20:35:32.876Z,261.33
2023-07-02T20:36:07.518Z,265.00
2023-07-02T20:36:40.166Z,240.67
2023-07-02T20:37:14.186Z,220.33
2023-07-02T20:37:50.760Z,204.67
2023-07-02T20:38:23.315Z,246.67
2023-07-02T20:39:00.237Z,275.33
2023-07-02T20:39:33.107Z,240.67
2023-07-02T20:40:14.323Z,262.67
2023-07-02T20:41:02.938Z,293.67
2023-07-02T20:41:35.698Z,345.33
2023-07-02T20:42:09.361Z,303.33
2023-07-02T20:42:42.400Z,247.33
2023-07-02T20:43:15.518Z,240.00
2023-07-02T20:43:48.491Z,249.33
2023-07-02T20:44:21.648Z,266.33
2023-07-02T20:44:54.243Z,244.00
2023-07-02T20:45:31.236Z,210.00
2023-07-02T20:46:05.765Z,183.33
2023-07-02T20:46:47.149Z,182.33
2023-07-02T20:47:22.421Z,190.00
2023-07-02T20:47:55.072Z,201.00
2023-07-02T20:48:30.533Z,211.33
2023-07-02T20:49:06.323Z,275.33
2023-07-02T20:49:39.172Z,301.00
2023-07-02T20:50:14.565Z,310.33
2023-07-02T20:50:47.245Z,300.00
2023-07-02T20:51:19.808Z,265.00
2023-07-02T20:51:52.353Z,297.33
2023-07-02T20:52:25.160Z,295.67
2023-07-02T20:52:58.633Z,291.00
2023-07-02T20:53:31.564Z,304.00
2023-07-02T20:54:04.112Z,319.00
2023-07-02T20:54:36.615Z,279.67
2023-07-02T20:55:09.751Z,223.00
2023-07-02T20:55:42.255Z,185.67
2023-07-02T20:56:15.654Z,159.67
2023-07-02T20:56:51.864Z,149.67
2023-07-02T20:57:24.500Z,140.33
2023-07-02T20:57:57.039Z,137.33
2023-07-02T20:58:30.629Z,142.67
2023-07-02T20:59:03.234Z,147.67
2023-07-02T20:59:35.791Z,149.67
2023-07-02T21:00:12.372Z,147.33
2023-07-02T21:01:00.776Z,144.33
2023-07-02T21:01:39.782Z,132.00
2023-07-02T21:02:14.957Z,120.33
2023-07-02T21:02:47.652Z,109.00
2023-07-02T21:03:20.385Z,102.00
2023-07-02T21:03:53.178Z,90.00
2023-07-02T21:04:25.882Z,80.00
2023-07-02T21:05:01.085Z,76.67
2023-07-02T21:05:33.627Z,73.00
2023-07-02T21:06:11.167Z,68.67
2023-07-02T21:06:43.805Z,65.00
2023-07-02T21:07:17.220Z,63.33
2023-07-02T21:07:50.004Z,66.67
2023-07-02T21:08:22.647Z,68.00
2023-07-02T21:08:55.277Z,65.67
2023-07-02T21:09:30.530Z,62.33
2023-07-02T21:10:04.959Z,62.33
2023-07-02T21:10:57.384Z,59.67
2023-07-02T21:11:34.312Z,65.00
2023-07-02T21:12:07.563Z,70.00
2023-07-02T21:12:40.132Z,68.33
2023-07-02T21:13:12.684Z,60.33
2023-07-02T21:13:46.313Z,55.33
2023-07-02T21:14:18.815Z,55.67
2023-07-02T21:14:52.979Z,59.00
2023-07-02T21:15:25.559Z,72.33
2023-07-02T21:16:00.496Z,70.67
2023-07-02T21:16:33.081Z,63.00
2023-07-02T21:17:08.606Z,56.67
2023-07-02T21:17:41.884Z,53.00
2023-07-02T21:18:14.439Z,54.67
2023-07-02T21:18:46.954Z,59.00
2023-07-02T21:19:20.149Z,62.33
2023-07-02T21:19:52.919Z,66.00
2023-07-02T21:20:26.615Z,67.67
2023-07-02T21:21:00.054Z,67.67
2023-07-02T21:21:32.798Z,67.00
2023-07-02T21:22:05.479Z,65.67
2023-07-02T21:22:40.641Z,59.67
2023-07-02T21:23:13.198Z,48.67
2023-07-02T21:23:45.870Z,44.00
2023-07-02T21:24:18.961Z,41.33
2023-07-02T21:24:52.074Z,40.00
2023-07-02T21:25:25.598Z,40.00
2023-07-02T21:26:48.178Z,38.33
2023-07-02T21:27:20.685Z,37.67
2023-07-02T21:27:53.183Z,36.33
2023-07-02T21:28:28.085Z,37.00
2023-07-02T21:29:00.655Z,37.00
2023-07-02T21:29:33.213Z,38.33
2023-07-02T21:30:06.505Z,39.00
2023-07-02T21:30:39.199Z,39.00
2023-07-02T21:31:15.316Z,38.33
2023-07-02T21:31:50.724Z,36.33
2023-07-02T21:32:23.659Z,35.67
2023-07-02T21:32:56.305Z,34.67
2023-07-02T21:33:28.906Z,34.00
2023-07-02T21:34:02.249Z,34.00
2023-07-02T21:34:36.946Z,33.67
2023-07-02T21:35:10.991Z,32.67
2023-07-02T21:35:43.490Z,32.00
2023-07-02T21:36:16.885Z,31.00
2023-07-02T21:36:51.813Z,30.33
2023-07-02T21:37:25.607Z,30.00
2023-07-02T21:37:58.178Z,28.67
2023-07-02T21:38:30.716Z,28.33